createdAt,value
2018-04-22T00:01:40.691Z,76.62
2018-04-22T00:04:09.129Z,75.70
2018-04-22T00:06:37.463Z,76.26
2018-04-22T00:09:06.729Z,76.50
2018-04-22T00:11:35.069Z,76.34
2018-04-22T00:14:03.411Z,75.98
2018-04-22T00:16:31.806Z,76.34
2018-04-22T00:19:00.168Z,75.91
2018-04-22T00:21:28.610Z,76.65
2018-04-22T00:23:56.964Z,76.52
2018-04-22T00:26:25.362Z,76.41
2018-04-22T00:28:53.689Z,76.72
2018-04-22T00:31:22.077Z,77.48
2018-04-22T00:33:50.426Z,77.23
2018-04-22T00:36:18.790Z,77.45
2018-04-22T00:38:47.144Z,77.75
2018-04-22T00:41:15.483Z,78.37
2018-04-22T00:43:43.828Z,78.23
2018-04-22T00:46:12.197Z,78.14
2018-04-22T00:48:40.555Z,78.69
2018-04-22T00:51:08.942Z,79.03
2018-04-22T00:53:49.190Z,79.36
2018-04-22T00:56:17.561Z,79.44
2018-04-22T00:58:45.953Z,79.54
2018-04-22T01:01:14.286Z,78.74
2018-04-22T01:03:42.651Z,78.75
2018-04-22T01:06:11.029Z,79.29
2018-04-22T01:08:39.367Z,79.29
2018-04-22T01:11:07.799Z,79.51
2018-04-22T01:13:37.599Z,79.72
2018-04-22T01:16:06.021Z,79.79
2018-04-22T01:18:34.432Z,79.99
2018-04-22T01:21:02.996Z,79.40
2018-04-22T01:23:31.368Z,79.72
2018-04-22T01:25:59.711Z,79.81
2018-04-22T01:28:28.100Z,79.50
2018-04-22T01:30:56.523Z,79.26
2018-04-22T01:33:24.847Z,79.13
2018-04-22T01:35:53.208Z,78.88
2018-04-22T01:38:21.572Z,79.31
2018-04-22T01:40:50.004Z,79.91
2018-04-22T01:43:18.462Z,80.05
2018-04-22T01:45:46.795Z,79.80
2018-04-22T01:48:15.144Z,80.37
2018-04-22T01:50:43.542Z,80.32
2018-04-22T01:53:12.116Z,80.64
2018-04-22T01:55:40.529Z,80.18
2018-04-22T01:58:08.882Z,80.06
2018-04-22T02:00:37.246Z,80.04
2018-04-22T02:03:05.583Z,80.23
2018-04-22T02:05:33.940Z,81.05
2018-04-22T02:08:02.268Z,81.05
2018-04-22T02:10:30.623Z,81.76
2018-04-22T02:12:58.952Z,81.85
2018-04-22T02:15:27.299Z,81.87
2018-04-22T02:17:55.633Z,81.63
2018-04-22T02:20:23.978Z,81.55
2018-04-22T02:22:52.445Z,81.43
2018-04-22T02:25:20.946Z,82.16
2018-04-22T02:27:49.344Z,82.35
2018-04-22T02:30:17.689Z,83.15
2018-04-22T02:32:46.017Z,83.45
2018-04-22T02:35:14.397Z,83.86
2018-04-22T02:37:42.730Z,83.94
2018-04-22T02:40:11.153Z,84.10
2018-04-22T02:42:39.788Z,84.44
2018-04-22T02:45:08.163Z,84.41
2018-04-22T02:47:36.504Z,84.59
2018-04-22T02:50:04.884Z,84.66
2018-04-22T02:52:33.585Z,84.56
2018-04-22T02:55:01.931Z,84.72
2018-04-22T02:57:30.337Z,85.68
2018-04-22T02:59:58.670Z,84.97
2018-04-22T03:02:28.947Z,85.16
2018-04-22T03:04:57.401Z,85.09
2018-04-22T03:07:25.844Z,85.36
2018-04-22T03:09:54.179Z,85.68
2018-04-22T03:12:22.539Z,85.71
2018-04-22T03:14:50.892Z,85.79
2018-04-22T03:17:19.232Z,85.73
2018-04-22T03:19:47.700Z,85.95
2018-04-22T03:22:16.096Z,86.60
2018-04-22T03:24:44.476Z,86.49
2018-04-22T03:27:12.827Z,86.86
2018-04-22T03:29:41.875Z,86.85
2018-04-22T03:32:10.287Z,86.90
2018-04-22T03:34:38.661Z,86.98
2018-04-22T03:37:07.219Z,87.18
2018-04-22T03:39:35.571Z,87.01
2018-04-22T03:42:03.990Z,87.11
2018-04-22T03:44:35.953Z,86.99
2018-04-22T03:47:04.299Z,86.78
2018-04-22T03:49:32.650Z,87.05
2018-04-22T03:52:01.013Z,86.87
2018-04-22T03:54:29.748Z,86.99
2018-04-22T03:56:58.080Z,87.07
2018-04-22T03:59:26.532Z,87.03
2018-04-22T04:01:54.849Z,86.97
2018-04-22T04:04:23.293Z,86.57
2018-04-22T04:06:51.675Z,87.04
2018-04-22T04:09:20.052Z,86.71
2018-04-22T04:11:48.408Z,86.91
2018-04-22T04:14:16.858Z,86.37
2018-04-22T04:16:45.194Z,86.24
2018-04-22T04:19:25.422Z,86.27
2018-04-22T04:22:05.791Z,86.06
2018-04-22T04:27:47.835Z,86.10
2018-04-22T04:30:16.177Z,85.53
2018-04-22T04:32:44.513Z,85.34
2018-04-22T04:35:12.869Z,85.64
2018-04-22T04:37:41.195Z,85.12
2018-04-22T04:40:09.561Z,84.86
2018-04-22T04:42:37.888Z,84.83
2018-04-22T04:45:06.231Z,84.76
2018-04-22T04:47:34.566Z,84.85
2018-04-22T04:50:02.969Z,84.58
2018-04-22T04:52:31.332Z,84.32
2018-04-22T04:54:59.691Z,84.51
2018-04-22T04:57:28.047Z,84.04
2018-04-22T04:59:56.527Z,84.50
2018-04-22T05:02:25.817Z,84.13
2018-04-22T05:04:54.152Z,84.36
2018-04-22T05:07:30.291Z,84.50
2018-04-22T05:09:58.649Z,84.12
2018-04-22T05:12:27.004Z,84.04
2018-04-22T05:14:55.362Z,83.78
2018-04-22T05:17:23.751Z,84.11
2018-04-22T05:19:52.163Z,83.77
2018-04-22T05:22:20.502Z,83.51
2018-04-22T05:24:48.844Z,83.48
2018-04-22T05:27:17.191Z,83.08
2018-04-22T05:29:45.633Z,82.86
2018-04-22T05:32:14.020Z,82.35
2018-04-22T05:34:42.362Z,81.09
2018-04-22T05:37:10.702Z,80.10
2018-04-22T05:39:39.105Z,77.06
2018-04-22T05:42:07.493Z,73.54
2018-04-22T05:44:35.864Z,71.79
2018-04-22T05:47:04.345Z,70.51
2018-04-22T05:49:32.723Z,69.00
2018-04-22T05:52:01.075Z,68.65
2018-04-22T05:54:29.403Z,66.97
2018-04-22T05:56:57.745Z,65.80
2018-04-22T05:59:26.103Z,65.76
2018-04-22T06:01:54.432Z,63.97
2018-04-22T06:04:22.855Z,61.80
2018-04-22T06:06:51.211Z,57.94
2018-04-22T06:09:19.557Z,55.88
2018-04-22T06:11:47.916Z,53.85
2018-04-22T06:14:16.234Z,53.21
2018-04-22T06:16:44.598Z,51.25
2018-04-22T06:19:12.934Z,51.22
2018-04-22T06:21:41.291Z,48.53
2018-04-22T06:24:09.628Z,50.24
2018-04-22T06:26:37.970Z,49.01
2018-04-22T06:29:06.325Z,49.32
2018-04-22T06:31:34.652Z,48.04
2018-04-22T06:34:02.989Z,44.98
2018-04-22T06:36:31.351Z,43.26
2018-04-22T06:38:59.688Z,44.75
2018-04-22T06:41:28.123Z,43.11
2018-04-22T06:43:56.473Z,43.47
2018-04-22T06:46:24.812Z,45.07
2018-04-22T06:48:53.154Z,43.81
2018-04-22T06:51:21.507Z,42.70
2018-04-22T06:53:49.872Z,43.02
2018-04-22T06:56:18.219Z,43.24
2018-04-22T06:58:46.576Z,43.03
2018-04-22T07:01:15.415Z,42.22
2018-04-22T07:03:43.761Z,41.89
2018-04-22T07:06:12.089Z,41.73
2018-04-22T07:08:40.462Z,40.00
2018-04-22T07:11:08.835Z,41.37
2018-04-22T07:13:37.212Z,41.20
2018-04-22T07:16:05.535Z,41.32
2018-04-22T07:18:33.882Z,40.22
2018-04-22T07:21:03.426Z,39.80
2018-04-22T07:23:31.801Z,39.32
2018-04-22T07:26:00.196Z,40.33
2018-04-22T07:28:28.532Z,39.54
2018-04-22T07:30:56.917Z,38.75
2018-04-22T07:33:25.253Z,38.88
2018-04-22T07:35:53.597Z,39.91
2018-04-22T07:38:21.917Z,38.14
2018-04-22T07:40:50.326Z,37.48
2018-04-22T07:43:18.694Z,37.50
2018-04-22T07:45:47.050Z,37.77
2018-04-22T07:48:15.462Z,36.94
2018-04-22T07:50:43.853Z,35.16
2018-04-22T07:53:12.246Z,36.57
2018-04-22T07:55:40.639Z,36.89
2018-04-22T07:58:08.967Z,34.19
2018-04-22T08:00:37.415Z,35.83
2018-04-22T08:03:05.773Z,35.77
2018-04-22T08:05:34.815Z,36.89
2018-04-22T08:08:03.157Z,37.17
2018-04-22T08:10:31.518Z,36.00
2018-04-22T08:12:59.862Z,34.95
2018-04-22T08:15:28.199Z,33.96
2018-04-22T08:17:56.547Z,34.49
2018-04-22T08:20:24.876Z,36.70
2018-04-22T08:22:53.251Z,34.35
2018-04-22T08:25:21.644Z,32.78
2018-04-22T08:27:49.985Z,30.36
2018-04-22T08:30:18.425Z,29.20
2018-04-22T08:32:46.770Z,29.13
2018-04-22T08:35:15.104Z,29.06
2018-04-22T08:37:43.544Z,30.75
2018-04-22T08:40:11.870Z,30.89
2018-04-22T08:42:40.236Z,30.14
2018-04-22T08:45:08.576Z,29.36
2018-04-22T08:47:36.911Z,30.30
2018-04-22T08:50:05.237Z,30.53
2018-04-22T08:52:33.587Z,29.42
2018-04-22T08:55:01.928Z,30.84
2018-04-22T08:57:30.320Z,28.16
2018-04-22T08:59:58.711Z,28.33
2018-04-22T09:02:27.052Z,25.60
2018-04-22T09:04:55.392Z,25.90
2018-04-22T09:07:23.728Z,25.26
2018-04-22T09:09:52.058Z,25.31
2018-04-22T09:12:20.577Z,24.94
2018-04-22T09:14:48.914Z,25.36
2018-04-22T09:17:17.258Z,25.09
2018-04-22T09:19:45.670Z,25.47
2018-04-22T09:22:13.994Z,25.49
2018-04-22T09:24:42.329Z,24.22
2018-04-22T09:27:10.692Z,25.60
2018-04-22T09:29:39.008Z,26.21
2018-04-22T09:32:12.811Z,27.33
2018-04-22T09:34:41.182Z,25.38
2018-04-22T09:37:09.506Z,26.56
2018-04-22T09:39:37.905Z,24.87
2018-04-22T09:42:06.279Z,26.52
2018-04-22T09:44:34.708Z,26.48
2018-04-22T09:47:03.047Z,27.05
2018-04-22T09:49:31.393Z,30.03
2018-04-22T09:51:59.737Z,29.36
2018-04-22T09:54:28.189Z,29.93
2018-04-22T09:56:56.542Z,28.97
2018-04-22T09:59:24.852Z,28.84
2018-04-22T10:01:53.371Z,28.43
2018-04-22T10:04:31.704Z,28.66
2018-04-22T10:07:00.059Z,29.08
2018-04-22T10:09:28.387Z,28.79
2018-04-22T10:11:56.725Z,29.47
2018-04-22T10:14:25.118Z,30.79
2018-04-22T10:16:53.472Z,30.34
2018-04-22T10:19:21.902Z,28.63
2018-04-22T10:21:50.290Z,30.02
2018-04-22T10:24:18.629Z,30.83
2018-04-22T10:26:47.081Z,28.77
2018-04-22T10:29:15.433Z,27.83
2018-04-22T10:31:43.771Z,29.16
2018-04-22T10:34:12.148Z,28.04
2018-04-22T10:36:40.490Z,28.38
2018-04-22T10:39:08.949Z,27.08
2018-04-22T10:41:37.291Z,28.60
2018-04-22T10:44:05.665Z,28.27
2018-04-22T10:46:34.075Z,27.27
2018-04-22T10:49:02.407Z,28.21
2018-04-22T10:51:30.751Z,27.51
2018-04-22T10:53:59.159Z,27.51
2018-04-22T10:56:27.493Z,28.48
2018-04-22T10:58:55.826Z,28.82
2018-04-22T11:01:24.288Z,27.87
2018-04-22T11:03:52.740Z,27.32
2018-04-22T11:06:21.072Z,27.89
2018-04-22T11:08:51.938Z,28.74
2018-04-22T11:11:20.245Z,28.24
2018-04-22T11:13:48.592Z,26.77
2018-04-22T11:16:16.920Z,26.30
2018-04-22T11:18:45.274Z,26.93
2018-04-22T11:21:13.610Z,26.77
2018-04-22T11:23:41.931Z,27.23
2018-04-22T11:26:10.255Z,27.68
2018-04-22T11:28:38.583Z,28.07
2018-04-22T11:31:06.995Z,26.33
2018-04-22T11:33:35.485Z,25.57
2018-04-22T11:36:03.876Z,26.48
2018-04-22T11:38:32.216Z,26.57
2018-04-22T11:41:00.640Z,26.92
2018-04-22T11:43:29.048Z,27.74
2018-04-22T11:45:57.382Z,26.59
2018-04-22T11:48:25.696Z,25.82
2018-04-22T11:50:54.227Z,27.49
2018-04-22T11:53:22.765Z,27.40
2018-04-22T11:55:51.087Z,28.00
2018-04-22T11:58:19.415Z,26.42
2018-04-22T12:00:47.759Z,27.34
2018-04-22T12:03:16.076Z,25.98
2018-04-22T12:05:44.398Z,26.55
2018-04-22T12:08:12.704Z,26.52
2018-04-22T12:10:41.081Z,27.11
2018-04-22T12:13:09.450Z,26.98
2018-04-22T12:15:37.810Z,26.30
2018-04-22T12:18:06.166Z,25.45
2018-04-22T12:20:34.512Z,26.72
2018-04-22T12:23:02.853Z,24.59
2018-04-22T12:25:32.087Z,24.69
2018-04-22T12:28:00.441Z,25.25
2018-04-22T12:30:28.772Z,25.12
2018-04-22T12:32:57.103Z,25.92
2018-04-22T12:35:25.425Z,26.49
2018-04-22T12:37:53.803Z,25.76
2018-04-22T12:40:22.146Z,26.52
2018-04-22T12:42:50.612Z,26.23
2018-04-22T12:45:18.895Z,24.20
2018-04-22T12:47:47.303Z,24.00
2018-04-22T12:50:17.508Z,25.27
2018-04-22T12:52:45.830Z,26.05
2018-04-22T12:55:14.251Z,27.10
2018-04-22T12:57:42.640Z,26.50
2018-04-22T13:00:11.034Z,25.30
2018-04-22T13:02:39.420Z,26.22
2018-04-22T13:05:07.741Z,24.94
2018-04-22T13:07:36.068Z,25.20
2018-04-22T13:10:04.376Z,24.19
2018-04-22T13:12:32.729Z,23.95
2018-04-22T13:15:01.051Z,25.77
2018-04-22T13:17:29.348Z,24.60
2018-04-22T13:19:57.800Z,23.50
2018-04-22T13:22:26.258Z,25.63
2018-04-22T13:24:54.659Z,26.21
2018-04-22T13:27:23.023Z,26.21
2018-04-22T13:29:51.365Z,24.29
2018-04-22T13:32:19.823Z,26.50
2018-04-22T13:34:48.168Z,23.84
2018-04-22T13:37:16.537Z,23.51
2018-04-22T13:39:44.868Z,25.31
2018-04-22T13:42:13.179Z,26.85
2018-04-22T13:44:41.514Z,25.95
2018-04-22T13:47:09.840Z,25.43
2018-04-22T13:49:38.155Z,26.98
2018-04-22T13:52:06.495Z,25.47
2018-04-22T13:54:34.848Z,23.92
2018-04-22T13:57:03.166Z,23.51
2018-04-22T13:59:31.491Z,25.55
2018-04-22T14:01:59.823Z,25.61
2018-04-22T14:04:28.158Z,26.65
2018-04-22T14:06:56.477Z,24.27
2018-04-22T14:09:24.860Z,25.01
2018-04-22T14:11:53.282Z,27.66
2018-04-22T14:14:21.597Z,25.61
2018-04-22T14:16:50.045Z,26.98
2018-04-22T14:19:18.439Z,25.39
2018-04-22T14:21:46.823Z,24.32
2018-04-22T14:24:15.256Z,24.35
2018-04-22T14:26:43.685Z,26.32
2018-04-22T14:29:11.989Z,26.30
2018-04-22T14:31:40.447Z,26.92
2018-04-22T14:34:08.730Z,26.68
2018-04-22T14:36:37.385Z,25.79
2018-04-22T14:39:05.747Z,25.00
2018-04-22T14:41:34.166Z,26.77
2018-04-22T14:44:14.441Z,27.96
2018-04-22T14:46:42.831Z,27.36
2018-04-22T14:49:11.164Z,23.99
2018-04-22T14:51:39.483Z,23.21
2018-04-22T14:54:07.810Z,25.13
2018-04-22T14:56:36.166Z,25.79
2018-04-22T14:59:04.491Z,29.01
2018-04-22T15:01:33.173Z,28.65
2018-04-22T15:04:01.519Z,25.80
2018-04-22T15:06:29.851Z,27.90
2018-04-22T15:08:58.196Z,29.06
2018-04-22T15:11:26.624Z,27.95
2018-04-22T15:13:54.987Z,27.38
2018-04-22T15:16:23.326Z,26.36
2018-04-22T15:18:51.805Z,26.58
2018-04-22T15:21:20.606Z,27.20
2018-04-22T15:23:48.976Z,25.99
2018-04-22T15:26:17.330Z,25.98
2018-04-22T15:28:45.861Z,27.77
2018-04-22T15:31:14.232Z,29.21
2018-04-22T15:33:42.564Z,28.16
2018-04-22T15:36:10.879Z,27.78
2018-04-22T15:38:40.212Z,26.59
2018-04-22T15:41:08.549Z,27.94
2018-04-22T15:43:36.933Z,29.62
2018-04-22T15:46:05.243Z,28.85
2018-04-22T15:48:33.563Z,30.98
2018-04-22T15:51:01.906Z,28.84
2018-04-22T15:53:30.236Z,29.54
2018-04-22T15:55:58.559Z,30.02
2018-04-22T15:58:26.876Z,27.93
2018-04-22T16:00:55.218Z,28.51
2018-04-22T16:03:23.538Z,28.22
2018-04-22T16:05:51.864Z,28.67
2018-04-22T16:08:20.216Z,29.13
2018-04-22T16:10:48.609Z,28.46
2018-04-22T16:13:16.960Z,30.29
2018-04-22T16:15:45.316Z,28.22
2018-04-22T16:18:13.659Z,27.69
2018-04-22T16:20:41.996Z,27.32
2018-04-22T16:23:10.296Z,26.90
2018-04-22T16:25:38.631Z,29.14
2018-04-22T16:28:06.946Z,30.38
2018-04-22T16:30:35.260Z,28.80
2018-04-22T16:33:03.591Z,29.70
2018-04-22T16:35:31.912Z,32.59
2018-04-22T16:38:00.231Z,28.21
2018-04-22T16:40:28.544Z,29.74
2018-04-22T16:42:56.872Z,30.61
2018-04-22T16:45:25.181Z,29.76
2018-04-22T16:47:53.511Z,29.76
2018-04-22T16:50:21.831Z,29.92
2018-04-22T16:52:50.145Z,29.96
2018-04-22T16:55:18.489Z,29.56
2018-04-22T16:57:46.819Z,31.66
2018-04-22T17:00:15.136Z,32.44
2018-04-22T17:02:43.484Z,35.38
2018-04-22T17:05:11.811Z,35.27
2018-04-22T17:07:40.139Z,36.50
2018-04-22T17:10:08.463Z,36.61
2018-04-22T17:12:36.786Z,38.28
2018-04-22T17:15:05.112Z,39.32
2018-04-22T17:17:33.462Z,38.62
2018-04-22T17:20:01.806Z,39.54
2018-04-22T17:22:30.197Z,40.48
2018-04-22T17:24:58.522Z,41.76
2018-04-22T17:27:26.844Z,41.87
2018-04-22T17:29:55.190Z,42.08
2018-04-22T17:32:23.523Z,42.50
2018-04-22T17:34:51.856Z,43.24
2018-04-22T17:37:32.628Z,42.59
2018-04-22T17:40:02.900Z,43.86
2018-04-22T17:42:36.683Z,44.09
2018-04-22T17:45:05.007Z,43.40
2018-04-22T17:47:33.349Z,43.89
2018-04-22T17:50:01.669Z,45.07
2018-04-22T17:52:29.974Z,44.77
2018-04-22T17:54:58.288Z,45.82
2018-04-22T17:57:26.646Z,45.54
2018-04-22T17:59:55.060Z,45.15
2018-04-22T18:02:23.390Z,45.56
2018-04-22T18:04:51.715Z,44.73
2018-04-22T18:07:21.978Z,46.11
2018-04-22T18:09:50.385Z,46.13
2018-04-22T18:12:18.721Z,45.87
2018-04-22T18:14:48.202Z,45.18
2018-04-22T18:17:16.576Z,44.46
2018-04-22T18:19:44.917Z,45.00
2018-04-22T18:22:13.265Z,45.71
2018-04-22T18:24:41.574Z,47.83
2018-04-22T18:27:09.899Z,47.05
2018-04-22T18:29:38.235Z,46.92
2018-04-22T18:32:06.535Z,48.99
2018-04-22T18:34:34.861Z,49.50
2018-04-22T18:37:03.177Z,49.08
2018-04-22T18:39:31.503Z,50.32
2018-04-22T18:42:01.030Z,49.94
2018-04-22T18:44:29.371Z,49.84
2018-04-22T18:46:57.690Z,50.91
2018-04-22T18:49:25.999Z,50.96
2018-04-22T18:51:54.498Z,50.82
2018-04-22T18:54:22.857Z,52.60
2018-04-22T18:56:51.223Z,51.50
2018-04-22T18:59:19.547Z,50.83
2018-04-22T19:01:47.854Z,52.17
2018-04-22T19:04:16.346Z,50.93
2018-04-22T19:06:45.615Z,50.38
2018-04-22T19:09:13.933Z,50.52
2018-04-22T19:11:42.254Z,50.19
2018-04-22T19:14:10.568Z,53.16
2018-04-22T19:16:38.957Z,52.85
2018-04-22T19:19:07.281Z,52.53
2018-04-22T19:21:35.622Z,54.29
2018-04-22T19:24:03.934Z,52.87
2018-04-22T19:26:32.253Z,53.55
2018-04-22T19:29:00.565Z,53.86
2018-04-22T19:31:28.920Z,53.18
2018-04-22T19:33:57.223Z,53.45
2018-04-22T19:36:25.545Z,53.00
2018-04-22T19:38:53.893Z,52.11
2018-04-22T19:41:22.222Z,52.91
2018-04-22T19:43:50.522Z,54.44
2018-04-22T19:46:18.851Z,54.53
2018-04-22T19:48:47.168Z,52.32
2018-04-22T19:51:15.511Z,53.82
2018-04-22T19:53:43.829Z,54.39
2018-04-22T19:56:12.150Z,54.09
2018-04-22T19:58:40.507Z,53.99
2018-04-22T20:01:08.831Z,54.08
2018-04-22T20:03:37.192Z,56.17
2018-04-22T20:06:05.500Z,55.18
2018-04-22T20:08:33.856Z,54.69
2018-04-22T20:11:02.188Z,55.38
2018-04-22T20:13:30.492Z,54.60
2018-04-22T20:15:58.939Z,55.26
2018-04-22T20:18:27.283Z,57.71
2018-04-22T20:20:55.813Z,57.83
2018-04-22T20:23:24.178Z,57.96
2018-04-22T20:25:52.505Z,58.73
2018-04-22T20:28:20.887Z,58.34
2018-04-22T20:30:49.210Z,59.35
2018-04-22T20:33:17.520Z,58.50
2018-04-22T20:35:45.847Z,57.43
2018-04-22T20:38:14.166Z,59.59
2018-04-22T20:40:42.490Z,60.46
2018-04-22T20:43:10.821Z,59.84
2018-04-22T20:45:39.162Z,61.57
2018-04-22T20:48:07.493Z,60.57
2018-04-22T20:50:36.162Z,59.79
2018-04-22T20:53:04.482Z,60.78
2018-04-22T20:55:32.795Z,60.07
2018-04-22T20:58:01.110Z,60.76
2018-04-22T21:00:29.449Z,60.48
2018-04-22T21:02:57.769Z,62.56
2018-04-22T21:05:26.128Z,62.46
2018-04-22T21:07:54.460Z,62.61
2018-04-22T21:10:22.778Z,62.85
2018-04-22T21:12:51.101Z,62.64
2018-04-22T21:15:19.436Z,63.76
2018-04-22T21:17:53.679Z,63.61
2018-04-22T21:20:25.804Z,61.72
2018-04-22T21:22:54.118Z,62.99
2018-04-22T21:25:22.491Z,63.42
2018-04-22T21:27:50.802Z,65.38
2018-04-22T21:30:19.138Z,63.55
2018-04-22T21:32:47.470Z,62.02
2018-04-22T21:35:15.787Z,62.47
2018-04-22T21:37:44.146Z,63.02
2018-04-22T21:40:12.469Z,63.62
2018-04-22T21:42:40.832Z,63.76
2018-04-22T21:45:09.135Z,64.92
2018-04-22T21:47:37.476Z,65.48
2018-04-22T21:50:05.831Z,65.55
2018-04-22T21:52:34.161Z,65.05
2018-04-22T21:55:02.483Z,65.92
2018-04-22T21:57:30.801Z,64.07
2018-04-22T21:59:59.159Z,64.92
2018-04-22T22:02:27.502Z,66.32
2018-04-22T22:04:55.839Z,66.38
2018-04-22T22:07:24.145Z,67.31
2018-04-22T22:09:52.473Z,66.53
2018-04-22T22:12:20.819Z,66.52
2018-04-22T22:14:49.156Z,66.39
2018-04-22T22:17:17.447Z,67.86
2018-04-22T22:19:45.789Z,66.83
2018-04-22T22:22:14.155Z,67.14
2018-04-22T22:24:42.473Z,66.47
2018-04-22T22:27:10.799Z,67.98
2018-04-22T22:29:39.169Z,68.66
2018-04-22T22:32:07.497Z,67.77
2018-04-22T22:34:35.821Z,66.89
2018-04-22T22:37:04.175Z,67.80
2018-04-22T22:39:32.512Z,67.45
2018-04-22T22:42:00.828Z,68.31
2018-04-22T22:44:29.161Z,67.93
2018-04-22T22:46:57.526Z,66.57
2018-04-22T22:49:25.869Z,68.13
2018-04-22T22:51:54.196Z,66.84
2018-04-22T22:54:22.525Z,67.90
2018-04-22T22:56:50.872Z,68.32
2018-04-22T22:59:19.211Z,68.44
2018-04-22T23:01:47.589Z,69.26
2018-04-22T23:04:15.907Z,69.36
2018-04-22T23:06:44.241Z,69.18
2018-04-22T23:09:12.565Z,69.14
2018-04-22T23:11:40.927Z,68.86
2018-04-22T23:14:09.265Z,68.72
2018-04-22T23:16:37.616Z,70.28
2018-04-22T23:19:05.948Z,69.25
2018-04-22T23:21:34.262Z,69.02
2018-04-22T23:24:02.607Z,68.33
2018-04-22T23:26:30.955Z,68.71
2018-04-22T23:28:59.287Z,67.32
2018-04-22T23:31:27.609Z,66.89
2018-04-22T23:33:56.032Z,66.31
2018-04-22T23:36:24.360Z,65.97
2018-04-22T23:38:52.692Z,68.86
2018-04-22T23:41:21.021Z,67.37
2018-04-22T23:43:49.365Z,68.93
2018-04-22T23:46:17.676Z,68.70
2018-04-22T23:48:46.018Z,68.29
2018-04-22T23:51:14.354Z,68.69
2018-04-22T23:53:44.548Z,68.38
2018-04-22T23:56:12.888Z,67.83
2018-04-22T23:58:41.235Z,67.68
